Main page
METAR-TAF:

METAR-TAF

Airports :

Cork, Ireland

Cork Airport

latitude: 51-51N, longitude: 008-29W, elevation: 153 m

Current weather observation

The report was made 31 minutes ago, at 02:00 UTC
Wind 14 kt from the Northwest
Temperature 14°C
Humidity 94%
Pressure 1020 hPa
Visibility 10 km or more
Few clouds at a height of 2200 ft

METAR: EICK 240200Z 31014KT 9999 FEW022 14/13 Q1020 NOSIG

Time: 03:31 (02:31 UTC)

Forecast

The report was made 3 hours and 31 minutes ago, at 23:00 UTC
Forecast valid from 24 at 00 UTC to 24 at 24 UTC
Wind 6 kt from the West/Northwest
Visibility 10 km or more
Scattered clouds at a height of 2500 ft
Becoming
from 24 at 06 UTC to 24 at 08 UTC
Wind 12 kt from the North/Northwest

TAF: EICK 232300Z 2400/2424 30006KT 9999 SCT025 BECMG 2406/2408 33012KT

Weather observations and forecasts of more than 4000 airports (METAR and TAF reports).

The available stations are represented by yellow and red dots on the map.

Hover mouse over dot to see the name of the station.

Then click to see weather observations and forecasts.

To change the map : click on the green buttons with a black cross to zoom in, on the green button with a dash to zoom out, or on the green arrows for adjacent maps.


METAR-TAF: